2005 BAAZ (2005330N09096)


On this page: IBTrACS data - Map and Plots - Positions - Intensities - Original source data

Summary

Start Nov 26
End Dec 4
Basin NI
LMI 45 kt
Sources jtwc_io
newdelhi
In WMO? Yes
Previous storm 2005 DELTA (NA)
Previous in basin 2005 MISSING (NI)
Concurrent storms 2006 ALVIN (SI)
2005 DELTA (NA)
2005 BAAZ (NI)
2005 EPSILON (NA)
Next in basin 2005 FANOOS (NI)
Next storm 2005 EPSILON (NA)

top of page IBTrACS Data: File Access

top of page HURSAT Data: File Access

Image of storm

top of page Plots:

Map of storm track will not appear if FTP is down
Time series of cyclone Maximum Sustained Wind will not appear if FTP is down
Time series of cyclone Minimum Central Pressure will not appear if FTP is down

top of page Track Data:Position

jtwc_io newdelhi
Date Lat Lon Lat Lon
2005-11-26 06:00:00 9.4 96.1
2005-11-26 12:00:00 9.7 95.5
2005-11-26 18:00:00 10.0 94.9
2005-11-27 00:00:00 10.7 94.6
2005-11-27 06:00:00 10.9 93.7
2005-11-27 12:00:00 11.0 92.6
2005-11-27 18:00:00 10.8 91.2
2005-11-28 00:00:00 10.3 89.9
2005-11-28 06:00:00 10.5 89.0 10.5 90.0
2005-11-28 12:00:00 10.7 88.1 10.5 88.5
2005-11-28 18:00:00 11.1 87.3 10.5 88.0
2005-11-29 00:00:00 11.6 86.5 10.5 87.5
2005-11-29 06:00:00 12.3 85.9 11.0 86.0
2005-11-29 12:00:00 12.6 85.2 12.0 84.0
2005-11-29 18:00:00 12.4 84.7 12.0 84.0
2005-11-30 00:00:00 12.6 84.3 12.0 84.0
2005-11-30 06:00:00 12.9 84.2 12.5 84.0
2005-11-30 12:00:00 12.7 84.4 12.5 84.0
2005-11-30 18:00:00 12.7 84.0 12.5 84.0
2005-12-01 00:00:00 13.0 83.9 12.5 84.0
2005-12-01 06:00:00 12.9 83.6 12.5 83.5
2005-12-01 12:00:00 12.8 83.3 12.5 83.5
2005-12-01 18:00:00 12.6 83.0 13.0 83.0
2005-12-02 00:00:00 12.4 82.6 13.0 82.5
2005-12-02 06:00:00 12.1 82.2 13.0 82.5
jtwc_io newdelhi
2005-12-02 12:00:00 12.3 81.4
2005-12-02 18:00:00 12.6 80.9
2005-12-03 00:00:00 12.8 80.4
2005-12-03 06:00:00 12.6 80.0
2005-12-03 12:00:00 12.5 79.7
2005-12-03 18:00:00 12.5 79.5
2005-12-04 00:00:00 12.5 79.3

top of pageTrack Data:Intensity

jtwc_io newdelhi
Date Wind Pres Wind Pres
2005-11-26 06:00:00 15. 1006.
2005-11-26 12:00:00 15. 1006.
2005-11-26 18:00:00 20. 1004.
2005-11-27 00:00:00 25. 1002.
2005-11-27 06:00:00 25. 1002.
2005-11-27 12:00:00 30. 1000.
2005-11-27 18:00:00 30. 1000.
2005-11-28 00:00:00 35. 997.
2005-11-28 06:00:00 35. 997. 30. 1004.
2005-11-28 12:00:00 35. 997. 30. 1004.
2005-11-28 18:00:00 45. 991. 35. 1004.
2005-11-29 00:00:00 45. 991. 35. 1002.
2005-11-29 06:00:00 45. 991. 45. 998.
2005-11-29 12:00:00 45. 991. 45. 998.
2005-11-29 18:00:00 45. 991. 45. 998.
2005-11-30 00:00:00 40. 994. 45. 998.
2005-11-30 06:00:00 40. 994. 35. 998.
2005-11-30 12:00:00 40. 994. 35. 998.
2005-11-30 18:00:00 45. 991. 35. 998.
2005-12-01 00:00:00 45. 991. 35. 998.
2005-12-01 06:00:00 45. 991. 35. 998.
2005-12-01 12:00:00 35. 997. 30. 998.
2005-12-01 18:00:00 35. 991. 30. 998.
2005-12-02 00:00:00 35. 997. 25. 1002.
2005-12-02 06:00:00 30. 1000. 25. 1004.
jtwc_io newdelhi
2005-12-02 12:00:00 30. 1000.
2005-12-02 18:00:00 30. 1000.
2005-12-03 00:00:00 30. 1000.
2005-12-03 06:00:00 25. 1002.
2005-12-03 12:00:00 20. 1004.
2005-12-03 18:00:00 20. 1004.
2005-12-04 00:00:00 20. 1004.

top of page Links to source data

Source Source file Format
jtwc_io bio052005.txt ATCF
newdelhi New_Delhi_Tropical_Cyclone_Track_and_Intensity_Current.csv:Line=2428 New Delhi CSV file (from Excel file)